sensor_id;sensor_type;location;lat;lon;timestamp;temperature;humidity
34953;DHT22;21164;54.378;10.202;2022-08-19T00:01:53;19.40;99.90
34953;DHT22;21164;54.378;10.202;2022-08-19T00:04:25;19.40;99.90
34953;DHT22;21164;54.378;10.202;2022-08-19T00:06:52;19.30;99.90
34953;DHT22;21164;54.378;10.202;2022-08-19T00:09:20;19.20;99.90
34953;DHT22;21164;54.378;10.202;2022-08-19T00:11:46;19.20;99.90
34953;DHT22;21164;54.378;10.202;2022-08-19T00:14:15;19.30;99.90
34953;DHT22;21164;54.378;10.202;2022-08-19T00:16:42;19.30;99.90
34953;DHT22;21164;54.378;10.202;2022-08-19T00:19:09;19.30;99.90
34953;DHT22;21164;54.378;10.202;2022-08-19T00:21:34;19.30;99.90
34953;DHT22;21164;54.378;10.202;2022-08-19T00:24:05;19.40;99.90
34953;DHT22;21164;54.378;10.202;2022-08-19T00:26:31;19.30;99.90
34953;DHT22;21164;54.378;10.202;2022-08-19T00:28:56;19.40;99.90
34953;DHT22;21164;54.378;10.202;2022-08-19T00:31:22;19.30;99.90
34953;DHT22;21164;54.378;10.202;2022-08-19T00:33:48;19.30;99.90
34953;DHT22;21164;54.378;10.202;2022-08-19T00:36:16;19.30;99.90
34953;DHT22;21164;54.378;10.202;2022-08-19T00:38:42;19.30;99.90
34953;DHT22;21164;54.378;10.202;2022-08-19T00:41:08;19.30;99.90
34953;DHT22;21164;54.378;10.202;2022-08-19T00:43:36;19.30;99.90
34953;DHT22;21164;54.378;10.202;2022-08-19T00:46:04;19.40;99.90
34953;DHT22;21164;54.378;10.202;2022-08-19T00:48:32;19.20;99.90
34953;DHT22;21164;54.378;10.202;2022-08-19T00:50:58;19.30;99.90
34953;DHT22;21164;54.378;10.202;2022-08-19T00:53:24;19.30;99.90
34953;DHT22;21164;54.378;10.202;2022-08-19T00:55:53;19.20;99.90
34953;DHT22;21164;54.378;10.202;2022-08-19T00:58:23;19.30;99.90
34953;DHT22;21164;54.378;10.202;2022-08-19T01:00:49;19.30;99.90
34953;DHT22;21164;54.378;10.202;2022-08-19T01:03:17;19.30;99.90
34953;DHT22;21164;54.378;10.202;2022-08-19T01:05:45;19.30;99.90
34953;DHT22;21164;54.378;10.202;2022-08-19T01:08:11;19.30;99.90
34953;DHT22;21164;54.378;10.202;2022-08-19T01:10:52;19.30;99.90
34953;DHT22;21164;54.378;10.202;2022-08-19T01:13:21;19.30;99.90
34953;DHT22;21164;54.378;10.202;2022-08-19T01:16:04;19.20;99.90
34953;DHT22;21164;54.378;10.202;2022-08-19T01:18:30;19.10;99.90
34953;DHT22;21164;54.378;10.202;2022-08-19T01:21:00;19.20;99.90
34953;DHT22;21164;54.378;10.202;2022-08-19T01:23:27;19.30;99.90
34953;DHT22;21164;54.378;10.202;2022-08-19T01:26:20;19.10;99.90
34953;DHT22;21164;54.378;10.202;2022-08-19T01:28:48;19.20;99.90
34953;DHT22;21164;54.378;10.202;2022-08-19T01:31:20;19.20;99.90
34953;DHT22;21164;54.378;10.202;2022-08-19T01:33:50;19.30;99.90
34953;DHT22;21164;54.378;10.202;2022-08-19T01:36:24;19.30;99.90
34953;DHT22;21164;54.378;10.202;2022-08-19T01:38:51;19.30;99.90
34953;DHT22;21164;54.378;10.202;2022-08-19T01:41:18;19.20;99.90
34953;DHT22;21164;54.378;10.202;2022-08-19T01:43:44;19.10;99.90
34953;DHT22;21164;54.378;10.202;2022-08-19T01:46:10;19.20;99.90
34953;DHT22;21164;54.378;10.202;2022-08-19T01:48:39;19.30;99.90
34953;DHT22;21164;54.378;10.202;2022-08-19T01:51:06;19.30;99.90
34953;DHT22;21164;54.378;10.202;2022-08-19T01:53:31;19.20;99.90
34953;DHT22;21164;54.378;10.202;2022-08-19T01:55:57;19.20;99.90
34953;DHT22;21164;54.378;10.202;2022-08-19T01:58:30;19.30;99.90
34953;DHT22;21164;54.378;10.202;2022-08-19T02:00:57;19.20;99.90
34953;DHT22;21164;54.378;10.202;2022-08-19T02:03:23;19.30;99.90
34953;DHT22;21164;54.378;10.202;2022-08-19T02:05:54;19.30;99.90
34953;DHT22;21164;54.378;10.202;2022-08-19T02:08:20;19.20;99.90
34953;DHT22;21164;54.378;10.202;2022-08-19T02:10:45;19.10;99.90
34953;DHT22;21164;54.378;10.202;2022-08-19T02:13:12;19.00;99.90
34953;DHT22;21164;54.378;10.202;2022-08-19T02:15:38;19.10;99.90
34953;DHT22;21164;54.378;10.202;2022-08-19T02:18:04;19.10;99.90
34953;DHT22;21164;54.378;10.202;2022-08-19T02:20:30;19.10;99.90
34953;DHT22;21164;54.378;10.202;2022-08-19T02:22:56;18.90;99.90
34953;DHT22;21164;54.378;10.202;2022-08-19T02:25:22;19.00;99.90
34953;DHT22;21164;54.378;10.202;2022-08-19T02:27:47;18.90;99.90
34953;DHT22;21164;54.378;10.202;2022-08-19T02:30:14;18.90;99.90
34953;DHT22;21164;54.378;10.202;2022-08-19T02:32:41;18.90;99.90
34953;DHT22;21164;54.378;10.202;2022-08-19T02:35:08;19.00;99.90
34953;DHT22;21164;54.378;10.202;2022-08-19T02:37:34;19.00;99.90
34953;DHT22;21164;54.378;10.202;2022-08-19T02:40:18;19.00;99.90
34953;DHT22;21164;54.378;10.202;2022-08-19T02:42:44;19.10;99.90
34953;DHT22;21164;54.378;10.202;2022-08-19T02:45:11;19.00;99.90
34953;DHT22;21164;54.378;10.202;2022-08-19T02:47:37;18.90;99.90
34953;DHT22;21164;54.378;10.202;2022-08-19T02:50:04;19.00;99.90
34953;DHT22;21164;54.378;10.202;2022-08-19T02:52:30;18.90;99.90
34953;DHT22;21164;54.378;10.202;2022-08-19T02:54:56;18.90;99.90
34953;DHT22;21164;54.378;10.202;2022-08-19T02:57:23;19.10;99.90
34953;DHT22;21164;54.378;10.202;2022-08-19T02:59:49;19.00;99.90
34953;DHT22;21164;54.378;10.202;2022-08-19T03:02:15;19.10;99.90
34953;DHT22;21164;54.378;10.202;2022-08-19T03:04:40;19.00;99.90
34953;DHT22;21164;54.378;10.202;2022-08-19T03:07:07;19.00;99.90
34953;DHT22;21164;54.378;10.202;2022-08-19T03:09:36;19.10;99.90
34953;DHT22;21164;54.378;10.202;2022-08-19T03:12:03;19.20;99.90
34953;DHT22;21164;54.378;10.202;2022-08-19T03:14:31;19.10;99.90
34953;DHT22;21164;54.378;10.202;2022-08-19T03:16:57;19.20;99.90
34953;DHT22;21164;54.378;10.202;2022-08-19T03:19:23;19.10;99.90
34953;DHT22;21164;54.378;10.202;2022-08-19T03:21:49;19.10;99.90
34953;DHT22;21164;54.378;10.202;2022-08-19T03:24:16;19.10;99.90
34953;DHT22;21164;54.378;10.202;2022-08-19T03:26:47;19.10;99.90
34953;DHT22;21164;54.378;10.202;2022-08-19T03:29:14;19.10;99.90
34953;DHT22;21164;54.378;10.202;2022-08-19T03:31:41;19.10;99.90
34953;DHT22;21164;54.378;10.202;2022-08-19T03:34:08;19.20;99.90
34953;DHT22;21164;54.378;10.202;2022-08-19T03:36:35;19.30;99.90
34953;DHT22;21164;54.378;10.202;2022-08-19T03:39:01;19.10;99.90
34953;DHT22;21164;54.378;10.202;2022-08-19T03:41:32;19.00;99.90
34953;DHT22;21164;54.378;10.202;2022-08-19T03:43:59;19.00;99.90
34953;DHT22;21164;54.378;10.202;2022-08-19T03:46:29;19.10;99.90
34953;DHT22;21164;54.378;10.202;2022-08-19T03:48:57;19.20;99.90
34953;DHT22;21164;54.378;10.202;2022-08-19T03:53:51;19.40;99.90
34953;DHT22;21164;54.378;10.202;2022-08-19T03:56:17;19.40;99.90
34953;DHT22;21164;54.378;10.202;2022-08-19T03:58:43;19.50;99.90
34953;DHT22;21164;54.378;10.202;2022-08-19T04:01:10;19.50;99.90
34953;DHT22;21164;54.378;10.202;2022-08-19T04:03:35;19.50;99.90
34953;DHT22;21164;54.378;10.202;2022-08-19T04:06:21;19.60;99.90
34953;DHT22;21164;54.378;10.202;2022-08-19T04:08:50;19.70;99.90
34953;DHT22;21164;54.378;10.202;2022-08-19T04:11:22;19.70;99.90
34953;DHT22;21164;54.378;10.202;2022-08-19T04:13:49;19.60;99.90
34953;DHT22;21164;54.378;10.202;2022-08-19T04:16:17;19.70;99.90
34953;DHT22;21164;54.378;10.202;2022-08-19T04:18:43;19.70;99.90
34953;DHT22;21164;54.378;10.202;2022-08-19T04:21:08;19.70;99.90
34953;DHT22;21164;54.378;10.202;2022-08-19T04:23:40;19.70;99.90
34953;DHT22;21164;54.378;10.202;2022-08-19T04:26:05;19.70;99.90
34953;DHT22;21164;54.378;10.202;2022-08-19T04:28:31;19.80;99.90
34953;DHT22;21164;54.378;10.202;2022-08-19T04:30:56;19.80;99.90
34953;DHT22;21164;54.378;10.202;2022-08-19T04:33:26;19.90;99.90
34953;DHT22;21164;54.378;10.202;2022-08-19T04:35:53;19.80;99.90
34953;DHT22;21164;54.378;10.202;2022-08-19T04:38:20;19.90;99.90
34953;DHT22;21164;54.378;10.202;2022-08-19T04:40:47;19.80;99.90
34953;DHT22;21164;54.378;10.202;2022-08-19T04:43:33;19.70;99.90
34953;DHT22;21164;54.378;10.202;2022-08-19T04:46:10;19.70;99.90
34953;DHT22;21164;54.378;10.202;2022-08-19T04:48:40;19.70;99.90
34953;DHT22;21164;54.378;10.202;2022-08-19T04:51:08;19.70;99.90
34953;DHT22;21164;54.378;10.202;2022-08-19T04:53:36;19.70;99.90
34953;DHT22;21164;54.378;10.202;2022-08-19T04:56:10;19.70;99.90
34953;DHT22;21164;54.378;10.202;2022-08-19T04:58:37;19.60;99.90
34953;DHT22;21164;54.378;10.202;2022-08-19T05:01:03;19.60;99.90
34953;DHT22;21164;54.378;10.202;2022-08-19T05:03:29;19.60;99.90
34953;DHT22;21164;54.378;10.202;2022-08-19T05:06:10;19.70;99.90
34953;DHT22;21164;54.378;10.202;2022-08-19T05:08:36;19.70;99.90
34953;DHT22;21164;54.378;10.202;2022-08-19T05:11:09;19.70;99.90
34953;DHT22;21164;54.378;10.202;2022-08-19T05:13:35;19.80;99.90
34953;DHT22;21164;54.378;10.202;2022-08-19T05:16:00;19.80;99.90
34953;DHT22;21164;54.378;10.202;2022-08-19T05:18:26;19.70;99.90
34953;DHT22;21164;54.378;10.202;2022-08-19T05:21:12;19.70;99.90
34953;DHT22;21164;54.378;10.202;2022-08-19T05:23:56;19.70;99.90
34953;DHT22;21164;54.378;10.202;2022-08-19T05:26:23;19.80;99.90
34953;DHT22;21164;54.378;10.202;2022-08-19T05:28:48;19.80;99.90
34953;DHT22;21164;54.378;10.202;2022-08-19T05:31:14;19.80;99.90
34953;DHT22;21164;54.378;10.202;2022-08-19T05:33:40;19.80;99.90
34953;DHT22;21164;54.378;10.202;2022-08-19T05:36:06;19.80;99.90
34953;DHT22;21164;54.378;10.202;2022-08-19T05:38:33;19.90;99.90
34953;DHT22;21164;54.378;10.202;2022-08-19T05:40:59;20.00;99.90
34953;DHT22;21164;54.378;10.202;2022-08-19T05:43:24;20.00;99.90
34953;DHT22;21164;54.378;10.202;2022-08-19T05:45:50;19.90;99.90
34953;DHT22;21164;54.378;10.202;2022-08-19T05:48:16;19.80;99.90
34953;DHT22;21164;54.378;10.202;2022-08-19T05:50:46;19.80;99.90
34953;DHT22;21164;54.378;10.202;2022-08-19T05:53:12;19.80;99.90
34953;DHT22;21164;54.378;10.202;2022-08-19T05:55:37;19.80;99.90
34953;DHT22;21164;54.378;10.202;2022-08-19T05:58:06;19.90;99.90
34953;DHT22;21164;54.378;10.202;2022-08-19T06:00:36;19.90;99.90
34953;DHT22;21164;54.378;10.202;2022-08-19T06:03:02;19.70;99.90
34953;DHT22;21164;54.378;10.202;2022-08-19T06:05:31;19.80;99.90
34953;DHT22;21164;54.378;10.202;2022-08-19T06:07:57;19.80;99.90
34953;DHT22;21164;54.378;10.202;2022-08-19T06:10:24;19.80;99.90
34953;DHT22;21164;54.378;10.202;2022-08-19T06:12:51;19.80;99.90
34953;DHT22;21164;54.378;10.202;2022-08-19T06:15:17;19.70;99.90
34953;DHT22;21164;54.378;10.202;2022-08-19T06:17:43;19.60;99.90
34953;DHT22;21164;54.378;10.202;2022-08-19T06:20:12;19.70;99.90
34953;DHT22;21164;54.378;10.202;2022-08-19T06:22:43;19.80;99.90
34953;DHT22;21164;54.378;10.202;2022-08-19T06:25:10;19.80;99.90
34953;DHT22;21164;54.378;10.202;2022-08-19T06:27:36;19.80;99.90
34953;DHT22;21164;54.378;10.202;2022-08-19T06:30:03;19.80;99.90
34953;DHT22;21164;54.378;10.202;2022-08-19T06:32:29;19.90;99.90
34953;DHT22;21164;54.378;10.202;2022-08-19T06:34:54;19.90;99.90
34953;DHT22;21164;54.378;10.202;2022-08-19T06:37:20;19.90;99.90
34953;DHT22;21164;54.378;10.202;2022-08-19T06:39:47;19.90;99.90
34953;DHT22;21164;54.378;10.202;2022-08-19T06:42:14;19.90;99.90
34953;DHT22;21164;54.378;10.202;2022-08-19T06:44:43;19.90;99.90
34953;DHT22;21164;54.378;10.202;2022-08-19T06:47:12;20.00;99.90
34953;DHT22;21164;54.378;10.202;2022-08-19T06:49:38;20.00;99.90
34953;DHT22;21164;54.378;10.202;2022-08-19T06:52:04;20.00;99.90
34953;DHT22;21164;54.378;10.202;2022-08-19T06:54:30;20.00;99.90
34953;DHT22;21164;54.378;10.202;2022-08-19T06:56:57;20.10;99.90
34953;DHT22;21164;54.378;10.202;2022-08-19T06:59:24;20.00;99.90
34953;DHT22;21164;54.378;10.202;2022-08-19T07:01:55;20.00;99.90
34953;DHT22;21164;54.378;10.202;2022-08-19T07:04:25;20.10;99.90
34953;DHT22;21164;54.378;10.202;2022-08-19T07:07:00;20.00;99.90
34953;DHT22;21164;54.378;10.202;2022-08-19T07:09:26;20.00;99.90
34953;DHT22;21164;54.378;10.202;2022-08-19T07:11:52;20.00;99.90
34953;DHT22;21164;54.378;10.202;2022-08-19T07:14:22;20.10;99.90
34953;DHT22;21164;54.378;10.202;2022-08-19T07:16:49;20.20;99.90
34953;DHT22;21164;54.378;10.202;2022-08-19T07:19:18;20.30;99.90
34953;DHT22;21164;54.378;10.202;2022-08-19T07:21:44;20.30;99.90
34953;DHT22;21164;54.378;10.202;2022-08-19T07:24:09;20.40;99.90
34953;DHT22;21164;54.378;10.202;2022-08-19T07:26:40;20.40;99.90
34953;DHT22;21164;54.378;10.202;2022-08-19T07:29:06;20.50;99.90
34953;DHT22;21164;54.378;10.202;2022-08-19T07:31:32;20.50;99.90
34953;DHT22;21164;54.378;10.202;2022-08-19T07:34:02;20.60;99.90
34953;DHT22;21164;54.378;10.202;2022-08-19T07:36:28;20.70;99.90
34953;DHT22;21164;54.378;10.202;2022-08-19T07:38:59;20.70;99.90
34953;DHT22;21164;54.378;10.202;2022-08-19T07:41:29;20.70;99.90
34953;DHT22;21164;54.378;10.202;2022-08-19T07:43:56;20.70;99.90
34953;DHT22;21164;54.378;10.202;2022-08-19T07:46:21;20.70;99.90
34953;DHT22;21164;54.378;10.202;2022-08-19T07:48:49;20.70;99.90
34953;DHT22;21164;54.378;10.202;2022-08-19T07:51:20;20.50;99.90
34953;DHT22;21164;54.378;10.202;2022-08-19T07:53:46;20.50;99.90
34953;DHT22;21164;54.378;10.202;2022-08-19T07:56:13;20.50;99.90
34953;DHT22;21164;54.378;10.202;2022-08-19T07:58:42;20.40;99.90
34953;DHT22;21164;54.378;10.202;2022-08-19T08:01:11;20.40;99.90
34953;DHT22;21164;54.378;10.202;2022-08-19T08:03:38;20.40;99.90
34953;DHT22;21164;54.378;10.202;2022-08-19T08:06:22;20.40;99.90
34953;DHT22;21164;54.378;10.202;2022-08-19T08:09:07;20.40;99.90
34953;DHT22;21164;54.378;10.202;2022-08-19T08:11:46;20.30;99.90
34953;DHT22;21164;54.378;10.202;2022-08-19T08:14:16;20.10;99.90
34953;DHT22;21164;54.378;10.202;2022-08-19T08:16:43;20.10;99.90
34953;DHT22;21164;54.378;10.202;2022-08-19T08:19:11;20.10;99.90
34953;DHT22;21164;54.378;10.202;2022-08-19T08:21:37;20.10;99.90
34953;DHT22;21164;54.378;10.202;2022-08-19T08:24:02;20.10;99.90
34953;DHT22;21164;54.378;10.202;2022-08-19T08:26:28;20.00;99.90
34953;DHT22;21164;54.378;10.202;2022-08-19T08:28:53;20.00;99.90
34953;DHT22;21164;54.378;10.202;2022-08-19T08:31:19;19.90;99.90
34953;DHT22;21164;54.378;10.202;2022-08-19T08:33:46;19.80;99.90
34953;DHT22;21164;54.378;10.202;2022-08-19T08:36:13;19.90;99.90
34953;DHT22;21164;54.378;10.202;2022-08-19T08:38:40;19.90;99.90
34953;DHT22;21164;54.378;10.202;2022-08-19T08:41:25;19.80;99.90
34953;DHT22;21164;54.378;10.202;2022-08-19T08:43:54;19.80;99.90
34953;DHT22;21164;54.378;10.202;2022-08-19T08:51:29;19.90;99.90
34953;DHT22;21164;54.378;10.202;2022-08-19T08:53:59;20.00;99.90
34953;DHT22;21164;54.378;10.202;2022-08-19T08:56:25;19.90;99.90
34953;DHT22;21164;54.378;10.202;2022-08-19T08:59:05;20.00;99.90
34953;DHT22;21164;54.378;10.202;2022-08-19T09:01:35;20.10;99.90
34953;DHT22;21164;54.378;10.202;2022-08-19T09:04:05;20.10;99.90
34953;DHT22;21164;54.378;10.202;2022-08-19T09:06:55;20.20;99.90
34953;DHT22;21164;54.378;10.202;2022-08-19T09:11:58;20.30;99.90
34953;DHT22;21164;54.378;10.202;2022-08-19T09:17:33;20.30;99.90
34953;DHT22;21164;54.378;10.202;2022-08-19T09:20:14;20.30;99.90
34953;DHT22;21164;54.378;10.202;2022-08-19T09:22:42;20.30;99.90
34953;DHT22;21164;54.378;10.202;2022-08-19T09:25:13;20.40;99.90
34953;DHT22;21164;54.378;10.202;2022-08-19T09:27:42;20.40;99.90
34953;DHT22;21164;54.378;10.202;2022-08-19T09:30:13;20.50;99.90
34953;DHT22;21164;54.378;10.202;2022-08-19T09:32:39;20.70;99.90
34953;DHT22;21164;54.378;10.202;2022-08-19T09:35:07;20.70;99.90
34953;DHT22;21164;54.378;10.202;2022-08-19T09:37:33;20.70;99.90
34953;DHT22;21164;54.378;10.202;2022-08-19T09:39:58;20.80;99.90
34953;DHT22;21164;54.378;10.202;2022-08-19T09:42:24;20.80;99.90
34953;DHT22;21164;54.378;10.202;2022-08-19T09:44:49;20.80;99.90
34953;DHT22;21164;54.378;10.202;2022-08-19T09:47:15;20.70;99.90
34953;DHT22;21164;54.378;10.202;2022-08-19T09:49:41;20.40;99.90
34953;DHT22;21164;54.378;10.202;2022-08-19T09:52:10;20.50;99.90
34953;DHT22;21164;54.378;10.202;2022-08-19T09:54:38;20.50;99.90
34953;DHT22;21164;54.378;10.202;2022-08-19T09:57:04;20.60;99.90
34953;DHT22;21164;54.378;10.202;2022-08-19T09:59:29;20.70;99.90
34953;DHT22;21164;54.378;10.202;2022-08-19T10:01:56;20.70;99.90
34953;DHT22;21164;54.378;10.202;2022-08-19T10:04:22;20.70;99.90
34953;DHT22;21164;54.378;10.202;2022-08-19T10:06:48;20.60;99.90
34953;DHT22;21164;54.378;10.202;2022-08-19T10:09:16;20.60;99.90
34953;DHT22;21164;54.378;10.202;2022-08-19T10:11:44;20.70;99.90
34953;DHT22;21164;54.378;10.202;2022-08-19T10:14:15;20.70;99.90
34953;DHT22;21164;54.378;10.202;2022-08-19T10:16:42;20.70;99.90
34953;DHT22;21164;54.378;10.202;2022-08-19T10:19:08;20.80;99.90
34953;DHT22;21164;54.378;10.202;2022-08-19T10:21:35;20.70;99.90
34953;DHT22;21164;54.378;10.202;2022-08-19T10:24:04;20.60;99.90
34953;DHT22;21164;54.378;10.202;2022-08-19T10:26:34;20.60;99.90
34953;DHT22;21164;54.378;10.202;2022-08-19T10:29:02;20.50;99.90
34953;DHT22;21164;54.378;10.202;2022-08-19T10:31:32;20.60;99.90
34953;DHT22;21164;54.378;10.202;2022-08-19T10:33:58;20.50;99.90
34953;DHT22;21164;54.378;10.202;2022-08-19T10:36:27;20.40;99.90
34953;DHT22;21164;54.378;10.202;2022-08-19T10:38:55;20.40;99.90
34953;DHT22;21164;54.378;10.202;2022-08-19T10:41:33;20.30;99.90
34953;DHT22;21164;54.378;10.202;2022-08-19T10:44:02;20.40;99.90
34953;DHT22;21164;54.378;10.202;2022-08-19T10:46:28;20.40;99.90
34953;DHT22;21164;54.378;10.202;2022-08-19T10:48:58;20.40;99.90
34953;DHT22;21164;54.378;10.202;2022-08-19T10:51:24;20.40;99.90
34953;DHT22;21164;54.378;10.202;2022-08-19T10:54:09;20.40;99.90
34953;DHT22;21164;54.378;10.202;2022-08-19T10:56:35;20.50;99.90
34953;DHT22;21164;54.378;10.202;2022-08-19T10:59:24;20.50;99.90
34953;DHT22;21164;54.378;10.202;2022-08-19T11:01:51;20.50;99.90
34953;DHT22;21164;54.378;10.202;2022-08-19T11:04:17;20.60;99.90
34953;DHT22;21164;54.378;10.202;2022-08-19T11:06:45;20.70;99.90
34953;DHT22;21164;54.378;10.202;2022-08-19T11:09:21;20.80;99.90
34953;DHT22;21164;54.378;10.202;2022-08-19T11:11:46;20.50;99.90
34953;DHT22;21164;54.378;10.202;2022-08-19T11:14:16;20.70;99.90
34953;DHT22;21164;54.378;10.202;2022-08-19T11:16:44;20.80;99.90
34953;DHT22;21164;54.378;10.202;2022-08-19T11:19:10;20.90;99.90
34953;DHT22;21164;54.378;10.202;2022-08-19T11:21:41;20.90;99.90
34953;DHT22;21164;54.378;10.202;2022-08-19T11:24:10;20.90;99.90
34953;DHT22;21164;54.378;10.202;2022-08-19T11:26:37;20.90;99.90
34953;DHT22;21164;54.378;10.202;2022-08-19T11:29:05;20.80;99.90
34953;DHT22;21164;54.378;10.202;2022-08-19T11:31:32;20.80;99.90
34953;DHT22;21164;54.378;10.202;2022-08-19T11:34:01;20.90;99.90
34953;DHT22;21164;54.378;10.202;2022-08-19T11:36:29;20.90;99.90
34953;DHT22;21164;54.378;10.202;2022-08-19T11:38:55;21.10;99.90
34953;DHT22;21164;54.378;10.202;2022-08-19T11:41:21;21.00;99.90
34953;DHT22;21164;54.378;10.202;2022-08-19T11:43:51;21.10;99.90
34953;DHT22;21164;54.378;10.202;2022-08-19T11:46:21;21.20;99.90
34953;DHT22;21164;54.378;10.202;2022-08-19T11:48:48;21.20;99.90
34953;DHT22;21164;54.378;10.202;2022-08-19T11:51:18;21.20;99.90
34953;DHT22;21164;54.378;10.202;2022-08-19T11:53:44;21.20;99.90
34953;DHT22;21164;54.378;10.202;2022-08-19T11:56:11;21.20;99.90
34953;DHT22;21164;54.378;10.202;2022-08-19T11:58:36;21.20;99.90
34953;DHT22;21164;54.378;10.202;2022-08-19T12:01:06;21.20;99.90
34953;DHT22;21164;54.378;10.202;2022-08-19T12:03:32;21.20;99.90
34953;DHT22;21164;54.378;10.202;2022-08-19T12:06:02;20.90;99.90
34953;DHT22;21164;54.378;10.202;2022-08-19T12:08:28;20.80;99.90
34953;DHT22;21164;54.378;10.202;2022-08-19T12:10:53;20.70;99.90
34953;DHT22;21164;54.378;10.202;2022-08-19T12:13:19;20.80;99.90
34953;DHT22;21164;54.378;10.202;2022-08-19T12:15:46;20.90;99.90
34953;DHT22;21164;54.378;10.202;2022-08-19T12:18:12;20.90;99.90
34953;DHT22;21164;54.378;10.202;2022-08-19T12:20:41;20.80;99.90
34953;DHT22;21164;54.378;10.202;2022-08-19T12:23:08;20.80;99.90
34953;DHT22;21164;54.378;10.202;2022-08-19T12:25:43;20.90;99.90
34953;DHT22;21164;54.378;10.202;2022-08-19T12:28:13;21.10;99.90
34953;DHT22;21164;54.378;10.202;2022-08-19T12:30:39;21.30;99.90
34953;DHT22;21164;54.378;10.202;2022-08-19T12:33:04;21.20;99.90
34953;DHT22;21164;54.378;10.202;2022-08-19T12:35:30;20.70;99.90
34953;DHT22;21164;54.378;10.202;2022-08-19T12:37:56;20.80;99.90
34953;DHT22;21164;54.378;10.202;2022-08-19T12:40:21;20.80;99.90
34953;DHT22;21164;54.378;10.202;2022-08-19T12:42:47;20.80;99.90
34953;DHT22;21164;54.378;10.202;2022-08-19T12:45:15;20.80;99.90
34953;DHT22;21164;54.378;10.202;2022-08-19T12:47:41;20.90;99.90
34953;DHT22;21164;54.378;10.202;2022-08-19T12:50:07;20.80;99.90
34953;DHT22;21164;54.378;10.202;2022-08-19T12:52:35;20.90;99.90
34953;DHT22;21164;54.378;10.202;2022-08-19T12:55:07;20.90;99.90
34953;DHT22;21164;54.378;10.202;2022-08-19T12:57:32;20.90;99.90
34953;DHT22;21164;54.378;10.202;2022-08-19T13:00:03;20.80;99.90
34953;DHT22;21164;54.378;10.202;2022-08-19T13:02:31;21.00;99.90
34953;DHT22;21164;54.378;10.202;2022-08-19T13:04:57;21.00;99.90
34953;DHT22;21164;54.378;10.202;2022-08-19T13:07:23;21.10;99.90
34953;DHT22;21164;54.378;10.202;2022-08-19T13:09:51;21.30;99.90
34953;DHT22;21164;54.378;10.202;2022-08-19T13:12:16;21.20;99.90
34953;DHT22;21164;54.378;10.202;2022-08-19T13:14:42;21.20;99.90
34953;DHT22;21164;54.378;10.202;2022-08-19T13:17:08;21.20;99.90
34953;DHT22;21164;54.378;10.202;2022-08-19T13:19:35;21.10;99.90
34953;DHT22;21164;54.378;10.202;2022-08-19T13:22:01;21.10;99.90
34953;DHT22;21164;54.378;10.202;2022-08-19T13:24:27;21.10;99.90
34953;DHT22;21164;54.378;10.202;2022-08-19T13:26:52;21.00;99.90
34953;DHT22;21164;54.378;10.202;2022-08-19T13:29:18;21.10;99.90
34953;DHT22;21164;54.378;10.202;2022-08-19T13:32:02;21.20;99.90
34953;DHT22;21164;54.378;10.202;2022-08-19T13:34:46;21.10;99.90
34953;DHT22;21164;54.378;10.202;2022-08-19T13:37:12;21.30;99.90
34953;DHT22;21164;54.378;10.202;2022-08-19T13:39:38;21.40;99.90
34953;DHT22;21164;54.378;10.202;2022-08-19T13:42:04;21.40;99.90
34953;DHT22;21164;54.378;10.202;2022-08-19T13:44:30;21.20;99.90
34953;DHT22;21164;54.378;10.202;2022-08-19T13:47:06;21.40;99.90
34953;DHT22;21164;54.378;10.202;2022-08-19T13:49:33;21.20;99.90
34953;DHT22;21164;54.378;10.202;2022-08-19T13:52:01;21.40;99.90
34953;DHT22;21164;54.378;10.202;2022-08-19T13:54:26;21.40;99.90
34953;DHT22;21164;54.378;10.202;2022-08-19T13:56:52;21.40;99.90
34953;DHT22;21164;54.378;10.202;2022-08-19T13:59:17;21.40;99.90
34953;DHT22;21164;54.378;10.202;2022-08-19T14:01:43;21.40;99.90
34953;DHT22;21164;54.378;10.202;2022-08-19T14:04:09;21.60;99.90
34953;DHT22;21164;54.378;10.202;2022-08-19T14:06:35;21.40;99.90
34953;DHT22;21164;54.378;10.202;2022-08-19T14:09:00;21.40;99.90
34953;DHT22;21164;54.378;10.202;2022-08-19T14:11:27;21.30;99.90
34953;DHT22;21164;54.378;10.202;2022-08-19T14:13:53;21.10;99.90
34953;DHT22;21164;54.378;10.202;2022-08-19T14:16:19;21.20;99.90
34953;DHT22;21164;54.378;10.202;2022-08-19T14:18:44;21.10;99.90
34953;DHT22;21164;54.378;10.202;2022-08-19T14:21:14;21.20;99.90
34953;DHT22;21164;54.378;10.202;2022-08-19T14:23:40;21.20;99.90
34953;DHT22;21164;54.378;10.202;2022-08-19T14:26:15;21.10;99.90
34953;DHT22;21164;54.378;10.202;2022-08-19T14:28:41;21.20;99.90
34953;DHT22;21164;54.378;10.202;2022-08-19T14:31:11;21.00;99.90
34953;DHT22;21164;54.378;10.202;2022-08-19T14:33:37;21.10;99.90
34953;DHT22;21164;54.378;10.202;2022-08-19T14:36:03;21.20;99.90
34953;DHT22;21164;54.378;10.202;2022-08-19T14:38:29;21.20;99.90
34953;DHT22;21164;54.378;10.202;2022-08-19T14:41:06;21.20;99.90
34953;DHT22;21164;54.378;10.202;2022-08-19T14:43:31;21.20;99.90
34953;DHT22;21164;54.378;10.202;2022-08-19T14:45:57;21.20;99.90
34953;DHT22;21164;54.378;10.202;2022-08-19T14:48:22;21.40;99.90
34953;DHT22;21164;54.378;10.202;2022-08-19T14:50:48;21.30;99.90
34953;DHT22;21164;54.378;10.202;2022-08-19T14:53:15;21.20;99.90
34953;DHT22;21164;54.378;10.202;2022-08-19T14:55:43;21.20;99.90
34953;DHT22;21164;54.378;10.202;2022-08-19T14:58:08;21.30;99.90
34953;DHT22;21164;54.378;10.202;2022-08-19T15:00:34;21.20;99.90
34953;DHT22;21164;54.378;10.202;2022-08-19T15:02:59;21.10;99.90
34953;DHT22;21164;54.378;10.202;2022-08-19T15:05:25;21.00;99.90
34953;DHT22;21164;54.378;10.202;2022-08-19T15:07:52;21.10;99.90
34953;DHT22;21164;54.378;10.202;2022-08-19T15:10:19;21.20;99.90
34953;DHT22;21164;54.378;10.202;2022-08-19T15:12:46;21.10;99.90
34953;DHT22;21164;54.378;10.202;2022-08-19T15:15:13;21.10;99.90
34953;DHT22;21164;54.378;10.202;2022-08-19T15:17:40;21.20;99.90
34953;DHT22;21164;54.378;10.202;2022-08-19T15:20:07;21.30;99.90
34953;DHT22;21164;54.378;10.202;2022-08-19T15:22:33;21.40;99.90
34953;DHT22;21164;54.378;10.202;2022-08-19T15:25:01;21.50;99.90
34953;DHT22;21164;54.378;10.202;2022-08-19T15:27:26;21.70;99.90
34953;DHT22;21164;54.378;10.202;2022-08-19T15:29:52;21.60;99.90
34953;DHT22;21164;54.378;10.202;2022-08-19T15:32:18;21.60;99.90
34953;DHT22;21164;54.378;10.202;2022-08-19T15:34:44;21.70;99.90